Time;durP1;ratioP1;P1;durP2;ratioP2;P2;SDS_P1;SDS_P2;PMS_P1;PMS_P2;Temp;Humidity;BMP_temperature;BMP_pressure;BME280_temperature;BME280_humidity;BME280_pressure;Samples;Min_cycle;Max_cycle;Signal;HPM_P1;HPM_P2
2023/01/09 00:02:19;;;;;;;4.17;2.97;;;;;;;5.75;100.00;99707.03;4986119;28;20298;-76
2023/01/09 00:04:44;;;;;;;3.73;2.90;;;;;;;5.74;100.00;99705.28;5006227;28;20277;-76
2023/01/09 00:07:10;;;;;;;2.70;2.50;;;;;;;5.68;100.00;99703.50;5002038;28;20191;-75
2023/01/09 00:09:35;;;;;;;3.60;2.60;;;;;;;5.70;100.00;99706.03;4987137;28;20262;-76
2023/01/09 00:12:01;;;;;;;3.27;2.97;;;;;;;5.73;100.00;99707.00;4968317;28;20205;-76
2023/01/09 00:14:27;;;;;;;4.33;3.20;;;;;;;5.72;100.00;99699.34;5010554;28;20797;-76
2023/01/09 00:16:56;;;;;;;3.63;3.07;;;;;;;5.69;100.00;99684.03;4974618;28;20279;-76
2023/01/09 00:19:21;;;;;;;4.87;3.10;;;;;;;5.71;100.00;99674.78;5003369;28;20276;-76
2023/01/09 00:21:47;;;;;;;4.17;2.93;;;;;;;5.73;100.00;99663.81;4999394;28;20192;-76
2023/01/09 00:24:13;;;;;;;3.87;3.30;;;;;;;5.73;100.00;99663.81;5005455;28;20205;-76
2023/01/09 00:26:38;;;;;;;5.40;3.13;;;;;;;5.73;100.00;99668.03;4991316;28;20213;-76
2023/01/09 00:29:08;;;;;;;4.00;3.60;;;;;;;5.75;100.00;99664.69;4999354;28;20215;-76
2023/01/09 00:31:34;;;;;;;4.43;3.03;;;;;;;5.76;100.00;99666.41;4981275;28;20230;-76
2023/01/09 00:34:06;;;;;;;5.93;3.20;;;;;;;5.79;100.00;99647.81;5009035;28;20231;-76
2023/01/09 00:36:32;;;;;;;6.40;3.43;;;;;;;5.81;100.00;99654.66;5006539;28;20225;-76
2023/01/09 00:38:57;;;;;;;5.17;3.60;;;;;;;5.90;100.00;99647.22;4982691;28;20249;-76
2023/01/09 00:41:30;;;;;;;4.27;3.53;;;;;;;5.94;100.00;99646.47;4996961;28;20184;-76
2023/01/09 00:44:12;;;;;;;5.57;3.60;;;;;;;5.98;100.00;99639.78;4994571;28;20188;-76
2023/01/09 00:46:43;;;;;;;4.17;3.20;;;;;;;6.03;100.00;99639.00;5001675;28;20585;-76
2023/01/09 00:49:09;;;;;;;4.47;3.63;;;;;;;6.10;100.00;99633.22;5005541;28;20247;-76
2023/01/09 00:51:36;;;;;;;4.90;3.80;;;;;;;6.12;100.00;99640.88;4982626;28;20665;-76
2023/01/09 00:54:02;;;;;;;5.60;3.87;;;;;;;6.16;100.00;99630.75;4998489;28;20682;-77
2023/01/09 00:56:28;;;;;;;4.70;4.00;;;;;;;6.18;100.00;99633.34;4998861;28;20211;-76
2023/01/09 00:58:54;;;;;;;4.73;3.73;;;;;;;6.16;100.00;99646.00;4999736;28;20217;-76
2023/01/09 01:01:20;;;;;;;4.67;3.37;;;;;;;6.10;100.00;99635.75;4980230;28;20203;-76
2023/01/09 01:03:45;;;;;;;7.23;4.00;;;;;;;6.10;100.00;99635.75;5006762;28;20203;-76
2023/01/09 01:08:55;;;;;;;4.77;3.63;;;;;;;6.05;100.00;99628.88;4996888;28;20222;-76
2023/01/09 01:11:21;;;;;;;7.40;3.83;;;;;;;6.04;100.00;99627.16;5010990;28;20194;-76
2023/01/09 01:13:47;;;;;;;5.73;4.33;;;;;;;6.02;100.00;99631.34;4979066;28;20198;-76
2023/01/09 01:16:13;;;;;;;4.70;3.77;;;;;;;6.00;100.00;99627.94;4991278;28;20242;-76
2023/01/09 01:18:39;;;;;;;4.93;3.70;;;;;;;6.03;100.00;99625.47;5005560;28;20214;-76
2023/01/09 01:21:09;;;;;;;5.37;4.50;;;;;;;6.01;100.00;99625.44;4994700;28;20202;-76
2023/01/09 01:23:35;;;;;;;4.10;3.70;;;;;;;6.02;100.00;99622.06;4989597;28;20210;-76
2023/01/09 01:26:13;;;;;;;4.07;3.53;;;;;;;6.00;100.00;99622.84;4982603;28;20188;-76
2023/01/09 01:28:39;;;;;;;5.47;3.90;;;;;;;6.08;100.00;99623.84;4996038;28;20202;-76
2023/01/09 01:31:05;;;;;;;5.07;3.67;;;;;;;6.04;100.00;99628.00;5002371;28;20681;-76
2023/01/09 01:33:31;;;;;;;5.17;3.67;;;;;;;6.01;100.00;99619.47;5001139;28;20902;-76
2023/01/09 01:36:01;;;;;;;4.73;3.30;;;;;;;6.00;100.00;99617.78;5001988;28;20234;-76
2023/01/09 01:38:28;;;;;;;6.23;3.73;;;;;;;6.00;100.00;99622.84;4979912;28;20215;-76
2023/01/09 01:40:54;;;;;;;4.67;3.70;;;;;;;6.05;100.00;99611.94;5000746;28;20222;-76
2023/01/09 01:43:19;;;;;;;5.93;3.93;;;;;;;6.03;100.00;99610.22;5006186;28;20725;-76
2023/01/09 01:45:45;;;;;;;3.60;3.30;;;;;;;6.02;100.00;99605.94;4996141;28;20188;-76
2023/01/09 01:48:26;;;;;;;4.30;3.90;;;;;;;6.02;100.00;99604.28;4981493;28;20261;-76
2023/01/09 01:50:59;;;;;;;4.73;3.90;;;;;;;6.00;100.00;99595.78;4989098;28;20848;-76
2023/01/09 01:53:32;;;;;;;4.43;3.70;;;;;;;6.03;100.00;99600.06;4991942;28;20265;-76
2023/01/09 01:56:04;;;;;;;5.27;3.73;;;;;;;6.09;100.00;99595.06;4986425;28;20226;-76
2023/01/09 01:58:31;;;;;;;3.93;3.53;;;;;;;6.11;100.00;99594.25;4987461;28;20223;-76
2023/01/09 02:00:57;;;;;;;6.63;4.07;;;;;;;6.14;100.00;99591.78;4994194;28;20652;-76
2023/01/09 02:03:27;;;;;;;5.20;3.77;;;;;;;6.14;100.00;99585.84;4985775;28;20596;-76
2023/01/09 02:05:52;;;;;;;6.80;4.53;;;;;;;6.12;100.00;99580.72;4981455;28;20223;-76
2023/01/09 02:08:18;;;;;;;4.77;3.67;;;;;;;6.13;100.00;99594.28;5013913;28;20865;-76
2023/01/09 02:10:45;;;;;;;5.23;4.30;;;;;;;6.16;100.00;99584.16;4984686;28;20196;-76
2023/01/09 02:13:11;;;;;;;4.43;4.03;;;;;;;6.13;100.00;99587.50;5004805;28;20195;-76
2023/01/09 02:15:49;;;;;;;5.67;4.50;;;;;;;6.12;100.00;99578.19;4996140;28;20281;-76
2023/01/09 02:18:36;;;;;;;5.70;4.50;;;;;;;6.08;100.00;99573.88;4997359;28;20675;-76
2023/01/09 02:21:07;;;;;;;4.97;4.43;;;;;;;6.12;100.00;99572.25;5010076;28;20210;-76
2023/01/09 02:23:51;;;;;;;5.83;4.50;;;;;;;6.15;100.00;99568.06;5008047;28;20195;-76
2023/01/09 02:26:32;;;;;;;6.57;5.10;;;;;;;6.16;100.00;99571.44;4977473;28;20196;-76
2023/01/09 02:29:10;;;;;;;7.87;4.70;;;;;;;6.18;100.00;99568.09;4999364;28;20880;-76
2023/01/09 02:31:48;;;;;;;5.87;4.80;;;;;;;6.20;100.00;99565.59;4973006;28;20278;-76
2023/01/09 02:34:25;;;;;;;6.90;4.70;;;;;;;6.18;100.00;99567.28;5000760;28;20191;-76
2023/01/09 02:37:03;;;;;;;5.70;4.23;;;;;;;6.22;100.00;99558.88;5003194;28;20749;-76
2023/01/09 02:39:41;;;;;;;7.57;4.20;;;;;;;6.25;100.00;99559.75;5002808;28;20226;-76
2023/01/09 02:42:19;;;;;;;5.87;4.53;;;;;;;6.29;100.00;99563.19;5011111;28;20357;-76
2023/01/09 02:44:45;;;;;;;4.83;3.97;;;;;;;6.33;100.00;99565.81;5004934;28;20205;-76
2023/01/09 02:47:16;;;;;;;6.33;4.13;;;;;;;6.34;100.00;99561.56;5005947;28;20574;-76
2023/01/09 02:49:44;;;;;;;4.37;3.87;;;;;;;6.36;100.00;99560.78;4990885;28;20605;-76
2023/01/09 02:52:35;;;;;;;5.33;4.53;;;;;;;6.36;100.00;99562.47;5007611;28;20531;-77
2023/01/09 02:55:40;;;;;;;5.73;3.67;;;;;;;6.38;100.00;99551.50;5002040;28;20222;-76
2023/01/09 02:58:24;;;;;;;4.53;4.00;;;;;;;6.43;100.00;99552.41;4988191;28;20715;-76
2023/01/09 03:01:20;;;;;;;4.37;3.97;;;;;;;6.46;100.00;99549.06;5008908;28;20199;-76
2023/01/09 03:03:55;;;;;;;4.70;3.93;;;;;;;6.48;100.00;99549.94;5002218;28;20710;-76
2023/01/09 03:06:34;;;;;;;4.30;3.30;;;;;;;6.50;100.00;99544.03;4978184;28;20649;-76
2023/01/09 03:09:21;;;;;;;4.93;4.00;;;;;;;6.51;100.00;99548.31;5004599;28;20289;-76
2023/01/09 03:11:52;;;;;;;4.50;4.10;;;;;;;6.53;100.00;99543.22;5006879;28;20551;-76
2023/01/09 03:14:22;;;;;;;5.33;4.20;;;;;;;6.56;100.00;99546.69;4979090;28;20195;-76
2023/01/09 03:16:55;;;;;;;7.17;4.53;;;;;;;6.57;100.00;99548.38;5000564;28;20216;-76
2023/01/09 03:19:25;;;;;;;4.33;3.57;;;;;;;6.59;100.00;99548.41;4997648;28;20270;-76
2023/01/09 03:21:52;;;;;;;5.20;3.53;;;;;;;6.60;100.00;99540.81;4998429;28;20612;-76
2023/01/09 03:24:17;;;;;;;5.80;4.30;;;;;;;6.61;100.00;99545.06;4991978;28;20253;-76
2023/01/09 03:26:43;;;;;;;6.23;3.43;;;;;;;6.63;100.00;99548.47;5000870;28;20190;-76
2023/01/09 03:29:09;;;;;;;4.73;3.57;;;;;;;6.65;100.00;99543.41;5004951;28;20211;-76
2023/01/09 03:31:34;;;;;;;5.10;3.50;;;;;;;6.65;100.00;99544.28;5006251;28;20199;-76
2023/01/09 03:34:00;;;;;;;4.47;3.33;;;;;;;6.66;100.00;99540.88;5001755;28;20199;-76
2023/01/09 03:36:25;;;;;;;4.60;3.60;;;;;;;6.67;100.00;99534.94;4979384;28;20219;-76
2023/01/09 03:38:51;;;;;;;4.60;3.47;;;;;;;6.69;100.00;99534.97;5009298;28;20586;-76
2023/01/09 03:41:18;;;;;;;4.73;3.23;;;;;;;6.70;100.00;99536.69;4975693;28;20198;-76
2023/01/09 03:43:43;;;;;;;5.20;3.50;;;;;;;6.70;100.00;99532.47;5011876;28;20198;-76
2023/01/09 03:46:09;;;;;;;4.43;3.60;;;;;;;6.72;100.00;99525.69;4985480;28;20198;-76
2023/01/09 03:48:34;;;;;;;4.10;3.70;;;;;;;6.72;100.00;99533.31;5004169;28;20696;-76
2023/01/09 03:51:00;;;;;;;4.40;3.23;;;;;;;6.72;100.00;99530.78;4971556;28;20226;-76
2023/01/09 03:53:27;;;;;;;4.07;3.37;;;;;;;6.73;100.00;99529.94;4984840;28;20210;-76
2023/01/09 03:55:54;;;;;;;4.03;3.20;;;;;;;6.74;100.00;99530.81;4989595;28;20265;-76
2023/01/09 03:58:21;;;;;;;4.50;2.90;;;;;;;6.78;100.00;99535.09;4997067;28;20898;-75
2023/01/09 04:00:49;;;;;;;4.80;3.10;;;;;;;6.81;100.00;99530.06;4976863;28;20741;-76
2023/01/09 04:03:17;;;;;;;3.57;3.27;;;;;;;6.81;100.00;99533.44;4980892;28;20199;-76
2023/01/09 04:05:44;;;;;;;3.70;3.13;;;;;;;6.82;100.00;99529.22;5007969;28;20282;-76
2023/01/09 04:08:10;;;;;;;3.77;2.93;;;;;;;6.80;100.00;99525.78;5001808;28;20223;-76
2023/01/09 04:10:36;;;;;;;4.60;3.17;;;;;;;6.83;100.00;99523.28;5009320;28;20293;-76
2023/01/09 04:13:01;;;;;;;4.33;2.87;;;;;;;6.81;100.00;99525.81;5007995;28;20192;-76
2023/01/09 04:15:27;;;;;;;3.20;2.83;;;;;;;6.84;100.00;99525.00;5010896;28;20836;-77
2023/01/09 04:17:52;;;;;;;3.30;2.90;;;;;;;6.82;100.00;99519.88;5006065;28;20258;-76
2023/01/09 04:20:18;;;;;;;6.03;3.10;;;;;;;6.83;100.00;99519.06;4983470;28;20235;-76
2023/01/09 04:22:43;;;;;;;3.93;3.30;;;;;;;6.83;100.00;99515.66;5011645;28;20234;-76
2023/01/09 04:25:09;;;;;;;6.13;3.50;;;;;;;6.85;100.00;99513.97;4981631;28;20233;-76
2023/01/09 04:27:34;;;;;;;3.97;2.87;;;;;;;6.85;100.00;99507.22;4997286;28;20196;-76
2023/01/09 04:30:00;;;;;;;3.17;2.70;;;;;;;6.87;100.00;99503.00;4987852;28;20674;-76
2023/01/09 04:32:26;;;;;;;3.83;3.10;;;;;;;6.85;100.00;99504.66;5007693;28;20210;-76
2023/01/09 04:34:55;;;;;;;4.60;3.00;;;;;;;6.86;100.00;99501.28;5000080;28;20211;-76
2023/01/09 04:37:22;;;;;;;3.30;2.77;;;;;;;6.86;100.00;99503.00;5002124;28;20196;-76
2023/01/09 04:39:48;;;;;;;4.57;3.43;;;;;;;6.86;100.00;99498.75;4999535;28;20196;-76
2023/01/09 04:42:14;;;;;;;3.60;2.97;;;;;;;6.88;100.00;99499.63;4996920;28;20219;-76
2023/01/09 04:44:39;;;;;;;3.43;2.93;;;;;;;6.88;100.00;99502.19;5009693;28;20300;-77
2023/01/09 04:47:05;;;;;;;4.90;2.93;;;;;;;6.88;100.00;99502.19;5015221;28;20187;-77
2023/01/09 04:49:30;;;;;;;4.90;2.93;;;;;;;6.89;100.00;99501.34;5009202;28;20280;-76
2023/01/09 04:51:56;;;;;;;3.40;2.93;;;;;;;6.92;100.00;99505.59;4983947;28;20193;-76
2023/01/09 04:54:21;;;;;;;4.20;2.83;;;;;;;6.90;100.00;99504.72;4986218;28;20210;-76
2023/01/09 04:56:47;;;;;;;4.00;2.93;;;;;;;6.92;100.00;99514.09;4995427;28;20234;-76
2023/01/09 04:59:13;;;;;;;3.20;2.60;;;;;;;6.89;100.00;99501.34;4998116;28;20210;-76
2023/01/09 05:01:39;;;;;;;4.80;2.77;;;;;;;6.90;100.00;99507.25;4999853;28;20199;-76
2023/01/09 05:04:05;;;;;;;4.43;2.40;;;;;;;6.93;100.00;99505.63;5003826;28;20191;-76
2023/01/09 05:06:30;;;;;;;4.10;2.30;;;;;;;6.96;100.00;99505.66;5008220;28;20206;-76
2023/01/09 05:08:56;;;;;;;5.20;2.33;;;;;;;6.97;100.00;99509.91;4990069;28;20269;-76
2023/01/09 05:11:24;;;;;;;4.90;2.53;;;;;;;6.95;100.00;99506.50;4989634;28;20196;-76
2023/01/09 05:13:50;;;;;;;3.80;2.67;;;;;;;6.95;100.00;99500.56;4981047;28;20792;-76
2023/01/09 05:16:15;;;;;;;2.97;1.97;;;;;;;6.97;100.00;99498.88;4985091;28;20218;-77
2023/01/09 05:18:41;;;;;;;2.60;2.00;;;;;;;6.98;100.00;99505.66;4992400;28;20223;-76
2023/01/09 05:21:06;;;;;;;3.60;2.10;;;;;;;6.98;100.00;99493.81;4988683;28;20218;-76
2023/01/09 05:23:31;;;;;;;2.10;1.90;;;;;;;6.99;100.00;99490.41;4990577;28;20663;-76
2023/01/09 05:25:57;;;;;;;4.77;1.90;;;;;;;7.01;100.00;99493.00;4976667;28;20198;-76
2023/01/09 05:28:22;;;;;;;4.20;1.80;;;;;;;7.04;100.00;99498.13;5007788;28;20238;-76
2023/01/09 05:30:48;;;;;;;2.83;2.03;;;;;;;7.03;100.00;99504.03;5016908;28;20233;-77
2023/01/09 05:33:14;;;;;;;4.40;2.07;;;;;;;7.05;100.00;99498.13;5004214;28;20728;-76
2023/01/09 05:35:39;;;;;;;3.63;2.10;;;;;;;7.04;100.00;99500.66;4988696;28;20612;-76
2023/01/09 05:38:05;;;;;;;2.57;1.87;;;;;;;7.06;100.00;99497.31;4991322;28;20211;-75
2023/01/09 05:40:30;;;;;;;2.97;1.83;;;;;;;7.07;100.00;99495.59;5016022;28;20198;-75
2023/01/09 05:42:56;;;;;;;2.27;1.70;;;;;;;7.06;100.00;99497.31;5008865;28;20199;-76
2023/01/09 05:45:21;;;;;;;3.60;2.00;;;;;;;7.07;100.00;99495.59;4999950;28;20218;-76
2023/01/09 05:47:47;;;;;;;2.13;1.60;;;;;;;7.09;100.00;99496.47;4984273;28;20230;-76
2023/01/09 05:50:13;;;;;;;3.33;1.87;;;;;;;7.09;100.00;99489.69;5018173;28;20186;-76
2023/01/09 05:52:39;;;;;;;2.90;1.73;;;;;;;7.09;100.00;99497.31;4994941;28;20282;-76
2023/01/09 05:55:06;;;;;;;4.47;1.90;;;;;;;7.10;100.00;99490.56;5007042;28;20301;-76
2023/01/09 05:57:31;;;;;;;4.50;1.60;;;;;;;7.11;100.00;99493.13;5008682;28;20601;-76
2023/01/09 05:59:57;;;;;;;1.77;1.60;;;;;;;7.12;100.00;99497.38;4982408;28;20283;-76
2023/01/09 06:02:22;;;;;;;2.30;1.60;;;;;;;7.12;100.00;99494.81;4986339;28;20697;-76
2023/01/09 06:04:47;;;;;;;1.80;1.70;;;;;;;7.13;100.00;99493.09;5014854;28;20714;-75
2023/01/09 06:07:13;;;;;;;5.47;1.63;;;;;;;7.13;100.00;99498.19;4997591;28;20187;-76
2023/01/09 06:09:38;;;;;;;3.07;1.40;;;;;;;7.12;100.00;99497.38;5008634;28;20583;-76
2023/01/09 06:12:04;;;;;;;2.47;1.30;;;;;;;7.13;100.00;99490.56;5001751;28;20370;-76
2023/01/09 06:14:29;;;;;;;3.43;1.47;;;;;;;7.12;100.00;99497.38;5007486;28;20198;-76
2023/01/09 06:16:55;;;;;;;4.20;1.50;;;;;;;7.13;100.00;99491.44;5001488;28;20227;-76
2023/01/09 06:19:20;;;;;;;2.00;1.47;;;;;;;7.13;100.00;99503.28;4998468;28;20294;-76
2023/01/09 06:21:46;;;;;;;2.47;1.20;;;;;;;7.11;100.00;99508.38;5005461;28;20263;-76
2023/01/09 06:24:12;;;;;;;1.80;1.57;;;;;;;7.11;100.00;99500.75;4994950;28;20649;-76
2023/01/09 06:26:37;;;;;;;1.80;1.40;;;;;;;7.11;100.00;99515.16;5003941;28;20241;-76
2023/01/09 06:29:03;;;;;;;3.33;1.40;;;;;;;7.12;100.00;99517.72;5008397;28;20342;-75
2023/01/09 06:31:28;;;;;;;1.50;1.40;;;;;;;7.11;100.00;99516.03;5014313;28;20273;-75
2023/01/09 06:33:54;;;;;;;1.70;1.60;;;;;;;7.11;100.00;99517.69;5001675;28;20205;-75
2023/01/09 06:36:19;;;;;;;2.30;1.30;;;;;;;7.11;100.00;99517.69;4980802;28;20303;-76
2023/01/09 06:38:45;;;;;;;4.87;1.30;;;;;;;7.10;100.00;99521.94;5011545;28;20241;-76
2023/01/09 06:41:11;;;;;;;1.83;1.40;;;;;;;7.11;100.00;99525.34;5014997;28;20225;-76
2023/01/09 06:43:36;;;;;;;1.50;1.30;;;;;;;7.12;100.00;99524.50;5014533;28;20199;-76
2023/01/09 06:46:04;;;;;;;3.20;1.20;;;;;;;7.11;100.00;99521.13;5001908;28;20182;-76
2023/01/09 06:48:30;;;;;;;2.60;1.50;;;;;;;7.11;100.00;99521.13;5009351;28;20289;-76
2023/01/09 06:50:56;;;;;;;1.77;1.07;;;;;;;7.09;100.00;99517.69;4997393;28;20187;-76
2023/01/09 06:53:21;;;;;;;5.17;1.60;;;;;;;7.09;100.00;99519.38;4991393;28;20573;-76
2023/01/09 06:55:47;;;;;;;2.37;1.20;;;;;;;7.08;100.00;99515.97;5005764;28;20691;-76
2023/01/09 06:58:12;;;;;;;2.00;1.37;;;;;;;7.08;100.00;99520.19;4997605;28;20684;-76
2023/01/09 07:00:38;;;;;;;2.97;1.10;;;;;;;7.06;100.00;99527.84;4982689;28;20608;-76
2023/01/09 07:03:04;;;;;;;3.17;1.10;;;;;;;7.05;100.00;99525.28;5001402;28;20652;-76
2023/01/09 07:05:30;;;;;;;2.20;1.50;;;;;;;7.04;100.00;99529.50;4993561;28;20613;-76
2023/01/09 07:07:56;;;;;;;1.53;1.40;;;;;;;7.04;100.00;99538.84;5006268;28;20294;-76
2023/01/09 07:10:22;;;;;;;1.67;1.47;;;;;;;7.02;100.00;99538.81;5007538;28;20282;-76
2023/01/09 07:12:47;;;;;;;2.40;1.67;;;;;;;7.03;100.00;99534.56;4994106;28;20206;-76
2023/01/09 07:15:13;;;;;;;2.27;1.50;;;;;;;7.01;100.00;99538.78;4979618;28;20241;-76
2023/01/09 07:17:38;;;;;;;2.60;1.80;;;;;;;7.00;100.00;99542.19;5006279;28;20191;-76
2023/01/09 07:20:04;;;;;;;1.80;1.57;;;;;;;6.97;100.00;99547.22;5008117;28;20199;-76
2023/01/09 07:22:30;;;;;;;1.50;1.40;;;;;;;6.96;100.00;99542.97;5008161;28;20279;-76
2023/01/09 07:24:55;;;;;;;2.13;1.50;;;;;;;6.94;100.00;99553.13;5000647;28;20281;-76
2023/01/09 07:27:21;;;;;;;2.27;1.60;;;;;;;6.90;100.00;99560.69;4984592;28;20287;-76
2023/01/09 07:29:47;;;;;;;2.50;1.80;;;;;;;6.86;100.00;99564.88;5002274;28;20221;-76
2023/01/09 07:32:12;;;;;;;1.90;1.57;;;;;;;6.86;100.00;99567.44;4991376;28;20279;-76
2023/01/09 07:34:38;;;;;;;5.13;1.90;;;;;;;6.84;100.00;99574.19;5006344;28;20198;-75
2023/01/09 07:37:03;;;;;;;3.87;1.70;;;;;;;6.84;100.00;99578.41;5000819;28;20210;-76
2023/01/09 07:39:29;;;;;;;2.10;1.90;;;;;;;6.82;100.00;99585.19;4997970;28;20249;-76
2023/01/09 07:41:54;;;;;;;2.17;1.80;;;;;;;6.80;100.00;99595.34;5003966;28;20278;-76
2023/01/09 07:44:20;;;;;;;3.13;2.20;;;;;;;6.79;100.00;99601.25;5007520;28;20662;-75
2023/01/09 07:46:45;;;;;;;2.50;2.30;;;;;;;6.77;100.00;99610.53;4983428;28;20199;-76
2023/01/09 07:49:11;;;;;;;3.17;2.17;;;;;;;6.76;100.00;99610.53;4983726;28;20215;-76
2023/01/09 07:51:41;;;;;;;3.13;2.43;;;;;;;6.74;100.00;99612.19;4999646;28;20785;-76
2023/01/09 07:54:07;;;;;;;2.63;2.40;;;;;;;6.72;100.00;99611.34;4999815;28;20211;-76
2023/01/09 07:56:33;;;;;;;2.73;2.37;;;;;;;6.72;100.00;99617.25;4978266;28;20216;-76
2023/01/09 07:58:58;;;;;;;3.80;3.20;;;;;;;6.71;100.00;99615.56;4991067;28;20222;-76
2023/01/09 08:01:23;;;;;;;3.07;2.60;;;;;;;6.72;100.00;99618.97;4971429;28;20763;-76
2023/01/09 08:03:49;;;;;;;4.13;3.10;;;;;;;6.72;100.00;99624.06;4998868;28;20819;-76
2023/01/09 08:06:14;;;;;;;4.23;3.20;;;;;;;6.73;100.00;99628.31;4976661;28;20739;-76
2023/01/09 08:08:40;;;;;;;3.50;3.20;;;;;;;6.74;100.00;99622.38;4988823;28;20313;-76
2023/01/09 08:11:05;;;;;;;3.93;3.03;;;;;;;6.73;100.00;99626.59;5005365;28;20226;-75
2023/01/09 08:13:31;;;;;;;4.07;3.67;;;;;;;6.73;100.00;99635.94;4993900;28;20206;-76
2023/01/09 08:15:56;;;;;;;4.40;3.97;;;;;;;6.72;100.00;99632.53;4994276;28;20227;-76
2023/01/09 08:18:21;;;;;;;4.70;4.20;;;;;;;6.73;100.00;99635.94;5011687;28;20238;-76
2023/01/09 08:20:48;;;;;;;5.30;4.30;;;;;;;6.76;100.00;99641.03;4995124;28;20198;-76
2023/01/09 08:23:13;;;;;;;5.13;3.83;;;;;;;6.77;100.00;99645.31;5013863;28;20194;-75
2023/01/09 08:25:39;;;;;;;5.20;4.70;;;;;;;6.77;100.00;99638.53;5001960;28;20196;-76
2023/01/09 08:28:04;;;;;;;5.00;4.20;;;;;;;6.81;100.00;99657.25;4992508;28;20210;-76
2023/01/09 08:30:30;;;;;;;5.27;4.13;;;;;;;6.82;100.00;99644.53;4987713;28;20564;-76
2023/01/09 08:32:55;;;;;;;6.67;4.97;;;;;;;6.82;100.00;99654.72;5001236;28;20187;-76
2023/01/09 08:35:21;;;;;;;6.33;4.80;;;;;;;6.80;100.00;99651.31;4993846;28;20786;-76
2023/01/09 08:37:47;;;;;;;7.70;5.13;;;;;;;6.78;100.00;99652.94;5008233;28;20293;-76
2023/01/09 08:40:14;;;;;;;5.93;4.47;;;;;;;6.76;100.00;99653.75;5009634;28;20188;-76
2023/01/09 08:48:09;;;;;;;6.80;5.73;;;;;;;6.71;100.00;99665.56;5010544;28;20230;-76
2023/01/09 08:50:35;;;;;;;9.70;5.60;;;;;;;6.72;100.00;99663.03;4982532;28;20203;-76
2023/01/09 08:53:01;;;;;;;7.90;5.50;;;;;;;6.71;100.00;99679.13;4983068;28;20202;-76
2023/01/09 08:55:26;;;;;;;8.20;5.70;;;;;;;6.70;100.00;99679.09;5005055;28;20207;-76
2023/01/09 08:57:53;;;;;;;6.93;5.50;;;;;;;6.70;100.00;99689.28;5002956;28;20238;-76
2023/01/09 09:00:21;;;;;;;10.10;5.73;;;;;;;6.69;100.00;99687.56;4999436;28;20188;-75
2023/01/09 09:02:56;;;;;;;7.60;6.33;;;;;;;6.74;100.00;99691.06;4996474;28;20203;-76
2023/01/09 09:05:23;;;;;;;6.80;5.23;;;;;;;6.80;100.00;99699.63;5000910;28;20193;-76
2023/01/09 09:07:50;;;;;;;8.57;5.77;;;;;;;6.86;100.00;99698.88;4990315;28;20219;-75
2023/01/09 09:10:16;;;;;;;9.70;6.57;;;;;;;6.89;100.00;99698.91;4999075;28;20203;-76
2023/01/09 09:12:43;;;;;;;8.10;5.97;;;;;;;6.95;100.00;99702.41;5003474;28;20265;-76
2023/01/09 09:15:12;;;;;;;7.03;5.70;;;;;;;7.00;100.00;99694.84;5007075;28;20192;-76
2023/01/09 09:17:44;;;;;;;6.83;4.80;;;;;;;7.00;100.00;99697.41;4995543;28;20187;-76
2023/01/09 09:20:10;;;;;;;10.83;6.43;;;;;;;7.02;100.00;99696.59;5003315;28;20228;-76
2023/01/09 09:22:36;;;;;;;8.67;6.10;;;;;;;7.08;100.00;99696.66;4992685;28;20234;-76
2023/01/09 09:25:03;;;;;;;7.43;5.83;;;;;;;7.12;100.00;99706.06;4992135;28;20191;-76
2023/01/09 09:27:29;;;;;;;11.93;5.87;;;;;;;7.15;100.00;99700.16;5002647;28;20278;-76
2023/01/09 09:29:55;;;;;;;9.43;5.40;;;;;;;7.21;100.00;99702.78;4983225;28;20192;-76
2023/01/09 09:32:20;;;;;;;9.97;5.03;;;;;;;7.32;100.00;99716.53;4985774;28;20677;-76
2023/01/09 09:34:46;;;;;;;10.03;5.80;;;;;;;7.37;100.00;99720.00;4995887;28;20586;-76
2023/01/09 09:37:11;;;;;;;13.03;6.30;;;;;;;7.40;100.00;99720.03;5012890;28;20254;-76
2023/01/09 09:39:37;;;;;;;13.40;6.20;;;;;;;7.64;100.00;99728.00;4999870;28;20589;-76
2023/01/09 09:44:55;;;;;;;12.87;6.20;;;;;;;7.26;100.00;99730.03;5008778;28;20206;-76
2023/01/09 09:47:39;;;;;;;12.37;6.37;;;;;;;7.35;100.00;99731.84;5015636;28;20695;-76
2023/01/09 09:50:26;;;;;;;12.07;6.57;;;;;;;7.43;100.00;99738.75;4976931;28;20201;-75
2023/01/09 09:52:58;;;;;;;14.63;6.70;;;;;;;7.24;100.00;99731.69;5014234;28;20282;-76
2023/01/09 09:55:29;;;;;;;12.17;6.20;;;;;;;7.16;100.00;99745.13;4969473;28;20211;-76
2023/01/09 09:57:58;;;;;;;10.07;6.07;;;;;;;7.12;100.00;99758.63;4994225;28;20639;-76
2023/01/09 10:00:24;;;;;;;10.87;6.77;;;;;;;7.09;100.00;99763.72;4992052;28;20230;-76
2023/01/09 10:03:12;;;;;;;9.53;6.33;;;;;;;7.09;100.00;99759.44;5002695;28;20281;-76
2023/01/09 10:05:44;;;;;;;11.23;6.87;;;;;;;7.11;100.00;99765.44;4993703;28;20326;-76
2023/01/09 10:08:39;;;;;;;11.00;6.70;;;;;;;7.05;100.00;99767.03;4988835;28;20230;-76
2023/01/09 10:11:14;;;;;;;12.27;6.33;;;;;;;7.06;100.00;99771.28;4959445;28;20206;-75
2023/01/09 10:16:48;;;;;;;14.93;6.03;;;;;;;7.04;100.00;99767.88;4994880;28;20295;-76
2023/01/09 10:19:33;;;;;;;11.30;6.40;;;;;;;7.09;100.00;99763.72;5001977;28;20721;-76
2023/01/09 10:22:05;;;;;;;10.77;6.00;;;;;;;7.19;100.00;99768.09;5004083;28;20195;-76
2023/01/09 10:25:06;;;;;;;10.67;6.10;;;;;;;8.02;100.00;99760.75;4978987;28;20200;-76
2023/01/09 10:27:55;;;;;;;14.37;5.60;;;;;;;8.95;97.12;99759.19;4979039;28;20229;-76
2023/01/09 10:30:42;;;;;;;9.87;5.03;;;;;;;9.01;93.29;99772.00;5001277;28;20200;-76
2023/01/09 10:33:34;;;;;;;8.77;4.90;;;;;;;8.51;93.16;99769.81;4993847;28;20187;-76
2023/01/09 10:36:21;;;;;;;7.97;4.90;;;;;;;8.53;92.56;99779.19;4998790;28;20891;-75
2023/01/09 10:38:50;;;;;;;9.33;5.03;;;;;;;8.20;92.52;99783.06;5001662;28;20218;-76
2023/01/09 10:41:45;;;;;;;8.67;5.27;;;;;;;8.22;92.98;99781.41;4974865;28;20226;-76
2023/01/09 10:44:19;;;;;;;8.57;4.60;;;;;;;8.14;92.54;99782.97;4986813;28;20282;-76
2023/01/09 10:46:54;;;;;;;12.80;4.60;;;;;;;8.30;93.08;99788.28;4992693;28;20189;-76
2023/01/09 10:49:21;;;;;;;11.37;5.20;;;;;;;8.20;93.51;99776.28;4984970;28;20235;-76
2023/01/09 10:51:48;;;;;;;11.50;5.30;;;;;;;8.11;94.15;99783.78;5002962;28;20320;-76
2023/01/09 10:54:20;;;;;;;10.37;5.47;;;;;;;8.16;94.09;99783.88;4988761;28;20199;-76
2023/01/09 10:57:13;;;;;;;11.10;4.77;;;;;;;7.84;94.38;99782.63;4997429;28;20666;-76
2023/01/09 10:59:40;;;;;;;8.90;5.10;;;;;;;7.77;95.44;99784.22;4995962;28;20212;-76
2023/01/09 11:02:24;;;;;;;10.20;5.37;;;;;;;7.58;95.85;99784.81;5006134;28;20209;-76
2023/01/09 11:04:50;;;;;;;10.63;6.03;;;;;;;7.45;96.55;99788.00;4990144;28;20202;-77
2023/01/09 11:07:23;;;;;;;14.63;6.53;;;;;;;7.50;97.19;99793.16;4993120;28;20187;-77
2023/01/09 11:10:04;;;;;;;11.23;5.80;;;;;;;7.48;96.98;99788.06;5011210;28;20324;-76
2023/01/09 11:12:32;;;;;;;15.33;6.43;;;;;;;7.57;96.73;99783.09;4971024;28;20807;-76
2023/01/09 11:15:15;;;;;;;13.77;5.50;;;;;;;8.06;95.44;99779.50;4999305;28;20218;-77
2023/01/09 11:17:42;;;;;;;10.17;5.77;;;;;;;8.90;93.80;99775.31;5004880;28;20634;-76
2023/01/09 11:20:28;;;;;;;8.97;5.33;;;;;;;11.43;85.38;99768.56;5007873;28;20196;-75
2023/01/09 11:22:56;;;;;;;9.43;4.83;;;;;;;10.43;80.68;99768.53;4993798;28;20878;-76
2023/01/09 11:25:27;;;;;;;9.10;4.43;;;;;;;14.74;70.14;99748.72;4974341;28;20192;-77
2023/01/09 11:28:01;;;;;;;5.73;3.60;;;;;;;17.44;56.87;99743.19;5020254;28;20313;-77
2023/01/09 11:30:28;;;;;;;7.77;3.27;;;;;;;17.11;53.60;99741.44;4976808;28;20602;-76
2023/01/09 11:32:57;;;;;;;6.43;3.40;;;;;;;18.02;51.25;99738.13;5002430;28;20205;-76
2023/01/09 11:35:27;;;;;;;5.37;2.70;;;;;;;15.62;54.29;99751.59;4998190;28;20216;-77
2023/01/09 11:38:03;;;;;;;8.47;3.33;;;;;;;13.94;66.73;99761.81;5002360;28;20230;-76
2023/01/09 11:40:36;;;;;;;7.37;3.40;;;;;;;11.88;71.54;99773.63;4992864;28;20191;-77
2023/01/09 11:43:18;;;;;;;7.77;4.07;;;;;;;10.64;78.21;99786.50;5000773;28;20196;-78
2023/01/09 11:45:51;;;;;;;7.40;3.97;;;;;;;10.35;81.35;99788.13;5000673;28;20331;-78
2023/01/09 11:48:28;;;;;;;10.83;4.57;;;;;;;9.58;83.76;99795.41;4998218;28;20241;-76
2023/01/09 11:50:56;;;;;;;6.83;4.40;;;;;;;9.61;84.59;99795.44;4989728;28;20572;-77
2023/01/09 11:53:22;;;;;;;7.37;4.10;;;;;;;10.04;82.74;99799.94;5009631;28;20704;-75
2023/01/09 11:56:00;;;;;;;7.53;4.03;;;;;;;11.33;78.90;99789.09;5010173;28;20355;-76
2023/01/09 11:58:29;;;;;;;10.30;3.87;;;;;;;11.32;78.18;99782.25;4999299;28;20326;-75